createdAt,value
2023-02-11T00:01:22.613Z,23.10
2023-02-11T00:03:35.582Z,22.30
2023-02-11T00:05:58.233Z,23.70
2023-02-11T00:08:10.775Z,24.70
2023-02-11T00:10:23.386Z,25.60
2023-02-11T00:12:37.393Z,25.00
2023-02-11T00:14:50.156Z,25.10
2023-02-11T00:17:02.758Z,26.70
2023-02-11T00:19:15.376Z,25.40
2023-02-11T00:21:28.176Z,27.90
2023-02-11T00:23:41.210Z,27.40
2023-02-11T00:25:53.750Z,29.40
2023-02-11T00:28:06.450Z,29.10
2023-02-11T00:30:19.041Z,30.00
2023-02-11T00:32:31.795Z,31.70
2023-02-11T00:34:44.394Z,32.70
2023-02-11T00:36:56.965Z,32.10
2023-02-11T00:39:09.766Z,31.80
2023-02-11T00:41:23.148Z,30.20
2023-02-11T00:43:36.311Z,26.70
2023-02-11T00:45:49.184Z,28.00
2023-02-11T00:48:01.967Z,29.80
2023-02-11T00:50:14.750Z,29.70
2023-02-11T00:52:27.484Z,29.30
2023-02-11T00:54:40.716Z,37.30
2023-02-11T00:56:53.353Z,39.70
2023-02-11T00:59:06.048Z,34.50
2023-02-11T01:01:18.756Z,32.00
2023-02-11T01:03:31.619Z,34.30
2023-02-11T01:05:44.254Z,29.20
2023-02-11T01:07:57.587Z,27.70
2023-02-11T01:10:11.085Z,36.20
2023-02-11T01:12:23.794Z,37.10
2023-02-11T01:14:36.270Z,37.20
2023-02-11T01:16:48.972Z,36.20
2023-02-11T01:19:01.768Z,34.20
2023-02-11T01:21:14.852Z,35.10
2023-02-11T01:23:27.485Z,38.10
2023-02-11T01:25:40.148Z,34.70
2023-02-11T01:27:52.758Z,33.70
2023-02-11T01:30:08.684Z,30.20
2023-02-11T01:32:21.307Z,30.00
2023-02-11T01:34:33.918Z,31.10
2023-02-11T01:36:46.462Z,31.20
2023-02-11T01:38:59.027Z,34.20
2023-02-11T01:41:14.608Z,33.90
2023-02-11T01:43:31.185Z,32.80
2023-02-11T01:45:47.032Z,29.30
2023-02-11T01:48:02.485Z,28.10
2023-02-11T01:50:15.160Z,27.30
2023-02-11T01:52:32.309Z,31.60
2023-02-11T01:55:08.964Z,30.60
2023-02-11T01:57:25.139Z,30.90
2023-02-11T01:59:45.252Z,29.70
2023-02-11T02:02:03.503Z,28.30
2023-02-11T02:04:19.004Z,28.80
2023-02-11T02:06:43.402Z,28.10
2023-02-11T02:09:03.500Z,35.80
2023-02-11T02:11:17.289Z,32.60
2023-02-11T02:13:32.212Z,26.00
2023-02-11T02:15:51.951Z,28.00
2023-02-11T02:18:24.505Z,39.30
2023-02-11T02:20:58.271Z,33.80
2023-02-11T02:23:36.710Z,30.40
2023-02-11T02:26:26.369Z,42.00
2023-02-11T02:29:03.987Z,35.10
2023-02-11T02:31:38.641Z,41.50
2023-02-11T02:34:19.637Z,29.20
2023-02-11T02:36:51.746Z,27.60
2023-02-11T02:39:25.657Z,29.20
2023-02-11T02:41:39.423Z,34.50
2023-02-11T02:43:52.639Z,35.00
2023-02-11T02:46:16.398Z,27.50
2023-02-11T02:48:31.223Z,33.10
2023-02-11T02:50:44.200Z,33.20
2023-02-11T02:53:05.459Z,27.30
2023-02-11T02:55:25.676Z,27.90
2023-02-11T02:58:02.961Z,24.90
2023-02-11T03:00:33.870Z,22.00
2023-02-11T03:03:00.802Z,28.90
2023-02-11T03:05:23.617Z,28.70
2023-02-11T03:07:52.012Z,27.60
2023-02-11T03:10:19.394Z,28.80
2023-02-11T03:12:34.559Z,24.40
2023-02-11T03:14:51.228Z,21.50
2023-02-11T03:17:06.653Z,21.40
2023-02-11T03:19:22.728Z,22.50
2023-02-11T03:21:38.712Z,23.10
2023-02-11T03:23:56.833Z,23.40
2023-02-11T03:26:20.937Z,30.70
2023-02-11T03:28:51.217Z,23.90
2023-02-11T03:31:12.512Z,21.10
2023-02-11T03:33:33.536Z,22.60
2023-02-11T03:35:53.314Z,23.00
2023-02-11T03:38:12.325Z,25.10
2023-02-11T03:40:45.757Z,25.30
2023-02-11T03:43:01.530Z,32.20
2023-02-11T03:45:17.800Z,24.20
2023-02-11T03:47:33.210Z,27.60
2023-02-11T03:49:50.425Z,31.60
2023-02-11T03:52:05.893Z,24.80
2023-02-11T03:54:23.707Z,25.50
2023-02-11T03:56:49.232Z,41.70
2023-02-11T03:59:01.864Z,31.30
2023-02-11T04:01:14.937Z,30.90
2023-02-11T04:03:27.651Z,26.40
2023-02-11T04:05:40.846Z,29.20
2023-02-11T04:07:53.440Z,29.60
2023-02-11T04:10:07.065Z,32.50
2023-02-11T04:12:20.169Z,34.30
2023-02-11T04:14:32.861Z,33.80
2023-02-11T04:16:45.492Z,28.30
2023-02-11T04:18:58.148Z,24.20
2023-02-11T04:21:10.967Z,24.10
2023-02-11T04:23:23.631Z,23.40
2023-02-11T04:25:36.383Z,25.50
2023-02-11T04:27:49.011Z,23.50
2023-02-11T04:30:02.196Z,23.40
2023-02-11T04:32:15.691Z,21.50
2023-02-11T04:34:28.216Z,22.20
2023-02-11T04:36:41.265Z,22.80
2023-02-11T04:38:53.933Z,22.10
2023-02-11T04:41:06.558Z,23.00
2023-02-11T04:43:19.140Z,22.70
2023-02-11T04:45:31.981Z,20.10
2023-02-11T04:47:44.615Z,21.10
2023-02-11T04:49:57.201Z,22.70
2023-02-11T04:52:10.384Z,22.70
2023-02-11T04:54:22.998Z,22.70
2023-02-11T04:56:35.639Z,23.00
2023-02-11T04:58:48.370Z,22.30
2023-02-11T05:01:13.437Z,21.60
2023-02-11T05:03:27.119Z,22.00
2023-02-11T05:05:41.470Z,21.30
2023-02-11T05:07:54.145Z,21.80
2023-02-11T05:10:06.721Z,22.80
2023-02-11T05:12:19.659Z,22.00
2023-02-11T05:14:33.339Z,21.50
2023-02-11T05:16:45.989Z,21.80
2023-02-11T05:18:59.123Z,20.90
2023-02-11T05:21:14.666Z,20.00
2023-02-11T05:23:27.228Z,19.70
2023-02-11T05:25:39.982Z,20.60
2023-02-11T05:27:52.529Z,20.30
2023-02-11T05:30:06.659Z,20.60
2023-02-11T05:32:19.450Z,20.80
2023-02-11T05:34:32.013Z,20.60
2023-02-11T05:36:44.628Z,20.50
2023-02-11T05:38:57.322Z,20.00
2023-02-11T05:41:10.946Z,19.50
2023-02-11T05:43:23.554Z,20.90
2023-02-11T05:45:36.161Z,21.00
2023-02-11T05:47:48.753Z,20.30
2023-02-11T05:50:01.360Z,20.50
2023-02-11T05:52:14.035Z,21.20
2023-02-11T05:54:26.630Z,20.30
2023-02-11T05:57:39.126Z,18.80
2023-02-11T05:59:51.675Z,20.90
2023-02-11T06:02:04.399Z,20.40
2023-02-11T06:04:16.930Z,20.10
2023-02-11T06:06:29.515Z,18.90
2023-02-11T06:08:42.991Z,19.80
2023-02-11T06:10:55.547Z,19.90
2023-02-11T06:13:08.071Z,20.00
2023-02-11T06:15:20.826Z,21.30
2023-02-11T06:17:33.812Z,21.20
2023-02-11T06:19:46.496Z,20.70
2023-02-11T06:21:59.067Z,20.90
2023-02-11T06:24:12.500Z,21.10
2023-02-11T06:26:25.379Z,20.10
2023-02-11T06:28:40.764Z,19.80
2023-02-11T06:30:54.574Z,20.00
2023-02-11T06:33:07.205Z,19.80
2023-02-11T06:35:19.951Z,20.90
2023-02-11T06:37:34.530Z,20.40
2023-02-11T06:39:47.231Z,21.00
2023-02-11T06:41:59.978Z,20.90
2023-02-11T06:44:12.792Z,20.90
2023-02-11T06:46:25.736Z,20.00
2023-02-11T06:48:38.553Z,21.70
2023-02-11T06:50:51.142Z,20.40
2023-02-11T06:53:03.723Z,20.10
2023-02-11T06:55:16.276Z,20.40
2023-02-11T06:57:30.699Z,19.80
2023-02-11T06:59:43.293Z,19.90
2023-02-11T07:01:56.115Z,20.90
2023-02-11T07:04:08.846Z,21.40
2023-02-11T07:06:26.921Z,21.70
2023-02-11T07:08:40.468Z,22.80
2023-02-11T07:10:53.026Z,21.80
2023-02-11T07:13:05.580Z,22.70
2023-02-11T07:15:18.055Z,21.70
2023-02-11T07:17:30.626Z,21.50
2023-02-11T07:19:43.208Z,20.20
2023-02-11T07:21:55.892Z,21.10
2023-02-11T07:24:12.862Z,20.80
2023-02-11T07:26:25.892Z,21.20
2023-02-11T07:28:39.705Z,21.10
2023-02-11T07:30:52.343Z,20.80
2023-02-11T07:33:04.921Z,19.90
2023-02-11T07:35:17.598Z,17.90
2023-02-11T07:37:30.325Z,18.10
2023-02-11T07:39:42.771Z,18.10
2023-02-11T07:41:55.474Z,19.00
2023-02-11T07:44:08.350Z,20.00
2023-02-11T07:46:26.486Z,19.00
2023-02-11T07:48:39.568Z,17.60
2023-02-11T07:50:52.105Z,17.10
2023-02-11T07:53:04.675Z,18.10
2023-02-11T07:55:17.224Z,18.20
2023-02-11T07:57:29.743Z,17.60
2023-02-11T07:59:42.277Z,16.40
2023-02-11T08:01:54.882Z,17.20
2023-02-11T08:04:10.665Z,17.90
2023-02-11T08:06:28.928Z,17.90
2023-02-11T08:08:41.876Z,18.60
2023-02-11T08:10:54.468Z,18.40
2023-02-11T08:13:07.006Z,19.10
2023-02-11T08:15:19.524Z,17.70
2023-02-11T08:17:32.051Z,18.70
2023-02-11T08:19:44.564Z,17.90
2023-02-11T08:21:57.498Z,18.30
2023-02-11T08:24:10.191Z,18.20
2023-02-11T08:26:28.907Z,17.90
2023-02-11T08:28:43.558Z,17.60
2023-02-11T08:30:56.209Z,18.40
2023-02-11T08:33:08.812Z,19.10
2023-02-11T08:35:21.317Z,19.50
2023-02-11T08:37:34.305Z,19.70
2023-02-11T08:39:47.421Z,18.50
2023-02-11T08:42:00.004Z,19.30
2023-02-11T08:44:13.131Z,19.90
2023-02-11T08:46:26.331Z,18.80
2023-02-11T08:48:38.976Z,19.10
2023-02-11T08:50:51.754Z,19.30
2023-02-11T08:53:04.344Z,19.80
2023-02-11T08:55:16.871Z,20.90
2023-02-11T08:57:29.371Z,20.20
2023-02-11T08:59:41.953Z,19.40
2023-02-11T09:01:54.691Z,18.00
2023-02-11T09:04:07.309Z,18.70
2023-02-11T09:06:20.637Z,19.60
2023-02-11T09:08:37.731Z,21.00
2023-02-11T09:10:50.557Z,20.30
2023-02-11T09:13:03.718Z,19.30
2023-02-11T09:15:16.219Z,19.70
2023-02-11T09:17:28.819Z,20.70
2023-02-11T09:19:41.355Z,21.70
2023-02-11T09:21:53.862Z,21.70
2023-02-11T09:24:06.705Z,19.60
2023-02-11T09:26:28.985Z,19.70
2023-02-11T09:28:41.744Z,20.70
2023-02-11T09:30:54.632Z,19.60
2023-02-11T09:33:07.690Z,19.60
2023-02-11T09:35:20.231Z,19.20
2023-02-11T09:37:34.170Z,20.20
2023-02-11T09:39:48.344Z,20.00
2023-02-11T09:42:06.864Z,19.10
2023-02-11T09:44:25.569Z,18.70
2023-02-11T09:46:42.829Z,19.20
2023-02-11T09:48:56.352Z,18.00
2023-02-11T09:51:44.072Z,17.00
2023-02-11T09:54:02.640Z,17.10
2023-02-11T09:56:17.060Z,17.20
2023-02-11T09:58:38.821Z,16.90
2023-02-11T10:00:57.298Z,16.50
2023-02-11T10:03:49.900Z,17.00
2023-02-11T10:06:36.494Z,16.10
2023-02-11T10:09:02.556Z,16.50
2023-02-11T10:11:32.117Z,17.10
2023-02-11T10:14:00.760Z,16.10
2023-02-11T10:16:41.180Z,15.10
2023-02-11T10:19:20.958Z,15.80
2023-02-11T10:21:50.627Z,15.00
2023-02-11T10:24:09.996Z,14.90
2023-02-11T10:26:23.573Z,14.70
2023-02-11T10:28:38.967Z,15.90
2023-02-11T10:31:11.542Z,15.40
2023-02-11T10:33:43.947Z,15.80
2023-02-11T10:35:56.557Z,17.00
2023-02-11T10:38:10.519Z,16.80
2023-02-11T10:40:28.982Z,16.80
2023-02-11T10:42:47.568Z,16.60
2023-02-11T10:45:07.226Z,15.90
2023-02-11T10:47:23.958Z,16.00
2023-02-11T10:49:42.688Z,15.90
2023-02-11T10:52:13.497Z,17.70
2023-02-11T10:54:26.094Z,17.80
2023-02-11T10:56:58.459Z,19.60
2023-02-11T10:59:40.107Z,18.70
2023-02-11T11:02:00.521Z,18.40
2023-02-11T11:04:44.921Z,17.70
2023-02-11T11:07:21.358Z,18.00
2023-02-11T11:09:49.333Z,18.10
2023-02-11T11:12:01.869Z,17.20
2023-02-11T11:14:20.574Z,18.30
2023-02-11T11:16:36.444Z,18.00
2023-02-11T11:18:51.875Z,17.90
2023-02-11T11:21:15.050Z,18.50
2023-02-11T11:23:30.347Z,19.00
2023-02-11T11:25:46.389Z,18.60
2023-02-11T11:28:01.286Z,18.60
2023-02-11T11:30:16.869Z,19.40
2023-02-11T11:32:32.602Z,19.40
2023-02-11T11:34:56.643Z,19.60
2023-02-11T11:37:25.916Z,18.30
2023-02-11T11:39:39.519Z,18.00
2023-02-11T11:41:58.151Z,19.20
2023-02-11T11:44:33.887Z,18.80
2023-02-11T11:46:51.207Z,18.40
2023-02-11T11:49:28.370Z,18.70
2023-02-11T11:51:45.521Z,17.70
2023-02-11T11:54:06.496Z,18.40
2023-02-11T11:56:26.230Z,17.70
2023-02-11T11:58:38.833Z,18.50
2023-02-11T12:01:10.675Z,18.10
2023-02-11T12:03:57.514Z,19.20
2023-02-11T12:06:37.417Z,18.10
2023-02-11T12:09:11.469Z,18.00
2023-02-11T12:11:48.951Z,17.90
2023-02-11T12:14:15.656Z,17.40
2023-02-11T12:16:34.732Z,17.60
2023-02-11T12:19:12.065Z,17.90
2023-02-11T12:21:35.908Z,17.70
2023-02-11T12:24:32.821Z,17.40
2023-02-11T12:27:11.196Z,17.40
2023-02-11T12:29:53.261Z,17.60
2023-02-11T12:32:24.618Z,18.00
2023-02-11T12:35:01.468Z,18.40
2023-02-11T12:37:28.284Z,17.40
2023-02-11T12:39:49.461Z,17.70
2023-02-11T12:42:40.457Z,18.10
2023-02-11T12:44:53.008Z,18.40
2023-02-11T12:47:25.864Z,17.50
2023-02-11T12:49:42.738Z,18.10
2023-02-11T12:52:11.706Z,18.60
2023-02-11T12:54:31.976Z,18.70
2023-02-11T12:56:59.292Z,18.70
2023-02-11T12:59:26.489Z,18.20
2023-02-11T13:01:41.979Z,17.50
2023-02-11T13:04:01.108Z,17.50
2023-02-11T13:06:18.634Z,17.30
2023-02-11T13:08:40.893Z,17.00
2023-02-11T13:11:14.426Z,17.50
2023-02-11T13:13:46.598Z,18.20
2023-02-11T13:16:09.200Z,40.80
2023-02-11T13:18:44.998Z,46.70
2023-02-11T13:21:15.980Z,29.70
2023-02-11T13:23:54.465Z,27.50
2023-02-11T13:26:19.108Z,18.50
2023-02-11T13:28:52.148Z,18.60
2023-02-11T13:31:07.802Z,17.90
2023-02-11T13:33:32.778Z,20.20
2023-02-11T13:36:05.589Z,22.20
2023-02-11T13:38:19.902Z,18.80
2023-02-11T13:40:35.170Z,17.70
2023-02-11T13:42:52.413Z,17.30
2023-02-11T13:45:18.469Z,16.90
2023-02-11T13:47:33.938Z,17.90
2023-02-11T13:49:52.225Z,18.20
2023-02-11T13:52:16.440Z,18.30
2023-02-11T13:54:39.029Z,16.70
2023-02-11T13:57:19.845Z,17.00
2023-02-11T13:59:33.148Z,19.60
2023-02-11T14:02:07.914Z,27.60
2023-02-11T14:04:49.176Z,31.00
2023-02-11T14:07:45.222Z,17.50
2023-02-11T14:09:58.524Z,19.20
2023-02-11T14:12:24.383Z,16.90
2023-02-11T14:15:03.272Z,16.70
2023-02-11T14:17:16.342Z,17.50
2023-02-11T14:19:40.299Z,16.80
2023-02-11T14:21:53.670Z,16.20
2023-02-11T14:24:07.103Z,16.90
2023-02-11T14:26:20.138Z,18.10
2023-02-11T14:28:34.838Z,16.20
2023-02-11T14:31:08.211Z,16.20
2023-02-11T14:33:47.688Z,15.50
2023-02-11T14:36:09.994Z,15.10
2023-02-11T14:38:45.399Z,15.20
2023-02-11T14:41:14.014Z,15.50
2023-02-11T14:43:33.217Z,15.40
2023-02-11T14:45:51.362Z,15.50
2023-02-11T14:48:08.841Z,16.70
2023-02-11T14:50:31.807Z,16.70
2023-02-11T14:52:45.481Z,15.60
2023-02-11T14:55:23.038Z,16.70
2023-02-11T14:57:37.661Z,16.40
2023-02-11T15:00:03.210Z,15.60
2023-02-11T15:02:26.470Z,16.60
2023-02-11T15:04:40.502Z,15.50
2023-02-11T15:06:55.119Z,15.60
2023-02-11T15:09:45.471Z,15.70
2023-02-11T15:11:58.882Z,16.30
2023-02-11T15:14:25.153Z,15.40
2023-02-11T15:16:44.453Z,16.70
2023-02-11T15:19:04.666Z,15.50
2023-02-11T15:21:22.957Z,15.80
2023-02-11T15:23:36.510Z,16.00
2023-02-11T15:25:55.428Z,17.30
2023-02-11T15:28:21.299Z,15.60
2023-02-11T15:30:34.494Z,15.20
2023-02-11T15:32:53.626Z,16.50
2023-02-11T15:35:11.323Z,15.80
2023-02-11T15:37:30.305Z,16.30
2023-02-11T15:39:43.374Z,15.40
2023-02-11T15:41:56.157Z,15.60
2023-02-11T15:44:27.364Z,15.00
2023-02-11T15:46:40.885Z,15.00
2023-02-11T15:48:55.354Z,15.40
2023-02-11T15:51:18.831Z,15.80
2023-02-11T15:53:43.326Z,15.70
2023-02-11T15:56:09.900Z,15.80
2023-02-11T15:58:23.667Z,16.90
2023-02-11T16:00:45.030Z,16.00
2023-02-11T16:02:57.747Z,14.60
2023-02-11T16:05:26.433Z,16.10
2023-02-11T16:07:42.441Z,14.60
2023-02-11T16:09:58.500Z,15.00
2023-02-11T16:12:27.145Z,14.20
2023-02-11T16:14:39.731Z,14.00
2023-02-11T16:16:56.536Z,14.00
2023-02-11T16:19:18.283Z,14.10
2023-02-11T16:21:39.234Z,15.00
2023-02-11T16:23:58.128Z,14.60
2023-02-11T16:26:26.003Z,14.40
2023-02-11T16:28:40.206Z,15.10
2023-02-11T16:30:55.298Z,14.10
2023-02-11T16:33:09.612Z,14.20
2023-02-11T16:35:22.583Z,14.40
2023-02-11T16:37:38.066Z,14.20
2023-02-11T16:39:54.406Z,14.30
2023-02-11T16:42:09.830Z,14.10
2023-02-11T16:44:23.136Z,14.00
2023-02-11T16:46:37.247Z,13.50
2023-02-11T16:48:50.217Z,13.50
2023-02-11T16:51:03.665Z,14.40
2023-02-11T16:53:21.488Z,14.20
2023-02-11T16:55:46.688Z,14.20
2023-02-11T16:58:59.765Z,14.50
2023-02-11T17:01:26.261Z,14.70
2023-02-11T17:03:40.741Z,13.80
2023-02-11T17:05:55.855Z,12.80
2023-02-11T17:08:09.953Z,13.40
2023-02-11T17:10:24.435Z,13.10
2023-02-11T17:12:37.381Z,13.00
2023-02-11T17:14:50.076Z,16.00
2023-02-11T17:17:02.834Z,13.30
2023-02-11T17:19:19.609Z,13.10
2023-02-11T17:21:32.503Z,18.20
2023-02-11T17:23:52.507Z,24.30
2023-02-11T17:26:31.982Z,25.20
2023-02-11T17:28:44.678Z,14.00
2023-02-11T17:31:00.920Z,13.60
2023-02-11T17:33:14.097Z,14.60
2023-02-11T17:35:27.095Z,15.50
2023-02-11T17:37:40.236Z,18.60
2023-02-11T17:40:24.242Z,16.90
2023-02-11T17:43:10.737Z,15.60
2023-02-11T17:45:23.422Z,14.80
2023-02-11T17:47:36.472Z,16.90
2023-02-11T17:49:49.176Z,19.40
2023-02-11T17:52:01.778Z,16.20
2023-02-11T17:54:17.418Z,17.60
2023-02-11T17:56:32.970Z,17.40
2023-02-11T17:58:45.911Z,15.30
2023-02-11T18:00:58.986Z,14.00
2023-02-11T18:03:11.769Z,14.90
2023-02-11T18:05:26.899Z,14.20
2023-02-11T18:07:39.599Z,14.20
2023-02-11T18:09:52.661Z,14.90
2023-02-11T18:12:06.652Z,20.30
2023-02-11T18:14:20.934Z,20.40
2023-02-11T18:16:36.319Z,18.20
2023-02-11T18:18:49.865Z,17.90
2023-02-11T18:21:04.275Z,19.50
2023-02-11T18:23:16.868Z,20.60
2023-02-11T18:25:30.062Z,15.80
2023-02-11T18:27:42.873Z,16.50
2023-02-11T18:29:55.432Z,14.10
2023-02-11T18:32:08.036Z,14.60
2023-02-11T18:34:20.617Z,15.60
2023-02-11T18:36:33.881Z,14.70
2023-02-11T18:38:46.647Z,15.00
2023-02-11T18:40:59.125Z,13.80
2023-02-11T18:43:12.908Z,14.60
2023-02-11T18:45:28.683Z,13.10
2023-02-11T18:47:41.834Z,12.90
2023-02-11T18:49:54.493Z,13.50
2023-02-11T18:52:07.063Z,12.30
2023-02-11T18:54:19.815Z,13.00
2023-02-11T18:56:32.391Z,13.90
2023-02-11T18:58:45.129Z,13.70
2023-02-11T19:00:57.739Z,13.50
2023-02-11T19:03:10.698Z,13.10
2023-02-11T19:05:26.142Z,13.50
2023-02-11T19:07:38.922Z,14.20
2023-02-11T19:09:51.478Z,13.20
2023-02-11T19:12:04.944Z,14.20
2023-02-11T19:14:29.885Z,14.60
2023-02-11T19:16:44.167Z,15.00
2023-02-11T19:18:56.836Z,15.30
2023-02-11T19:21:11.243Z,13.50
2023-02-11T19:23:23.839Z,13.80
2023-02-11T19:25:37.520Z,13.80
2023-02-11T19:27:50.401Z,16.40
2023-02-11T19:30:03.976Z,17.40
2023-02-11T19:32:16.959Z,13.00
2023-02-11T19:34:29.600Z,14.40
2023-02-11T19:36:42.865Z,12.00
2023-02-11T19:38:55.534Z,12.20
2023-02-11T19:41:08.408Z,12.90
2023-02-11T19:43:21.135Z,11.60
2023-02-11T19:45:37.231Z,12.00
2023-02-11T19:47:55.164Z,11.20
2023-02-11T19:50:08.509Z,11.70
2023-02-11T19:52:21.384Z,11.60
2023-02-11T19:54:34.571Z,12.40
2023-02-11T19:56:48.657Z,12.50
2023-02-11T19:59:04.663Z,12.90
2023-02-11T20:01:20.765Z,12.30
2023-02-11T20:03:33.487Z,13.50
2023-02-11T20:05:48.005Z,14.40
2023-02-11T20:08:01.036Z,13.50
2023-02-11T20:10:13.543Z,13.40
2023-02-11T20:12:26.079Z,13.80
2023-02-11T20:14:38.857Z,12.50
2023-02-11T20:16:52.307Z,13.30
2023-02-11T20:19:04.966Z,12.70
2023-02-11T20:21:24.460Z,11.60
2023-02-11T20:23:38.286Z,11.80
2023-02-11T20:25:51.351Z,12.10
2023-02-11T20:28:04.326Z,12.40
2023-02-11T20:30:16.959Z,11.80
2023-02-11T20:32:32.833Z,11.60
2023-02-11T20:34:45.716Z,11.80
2023-02-11T20:37:02.165Z,12.20
2023-02-11T20:39:17.336Z,10.40
2023-02-11T20:41:34.331Z,12.10
2023-02-11T20:43:54.270Z,11.50
2023-02-11T20:46:08.096Z,11.60
2023-02-11T20:48:20.973Z,11.50
2023-02-11T20:50:34.468Z,13.00
2023-02-11T20:52:48.372Z,14.40
2023-02-11T20:55:01.756Z,12.60
2023-02-11T20:57:14.528Z,18.00
2023-02-11T20:59:27.424Z,17.80
2023-02-11T21:01:44.299Z,16.70
2023-02-11T21:04:03.385Z,13.60
2023-02-11T21:06:16.432Z,12.30
2023-02-11T21:08:29.304Z,15.20
2023-02-11T21:10:41.956Z,17.40
2023-02-11T21:12:54.925Z,14.70
2023-02-11T21:15:09.822Z,12.50
2023-02-11T21:17:22.652Z,11.10
2023-02-11T21:19:35.414Z,12.90
2023-02-11T21:21:48.435Z,12.10
2023-02-11T21:24:01.345Z,11.10
2023-02-11T21:26:15.820Z,11.90
2023-02-11T21:28:28.506Z,12.30
2023-02-11T21:30:41.827Z,12.90
2023-02-11T21:32:54.438Z,13.60
2023-02-11T21:35:07.624Z,11.40
2023-02-11T21:37:22.588Z,12.00
2023-02-11T21:39:35.241Z,11.80
2023-02-11T21:41:47.922Z,12.30
2023-02-11T21:44:00.679Z,12.60
2023-02-11T21:46:15.193Z,11.00
2023-02-11T21:48:27.746Z,11.20
2023-02-11T21:50:42.289Z,11.60
2023-02-11T21:52:54.892Z,11.50
2023-02-11T21:55:08.224Z,11.90
2023-02-11T21:57:21.693Z,10.80
2023-02-11T21:59:34.229Z,13.40
2023-02-11T22:01:47.054Z,13.00
2023-02-11T22:04:00.242Z,13.60
2023-02-11T22:06:23.433Z,12.70
2023-02-11T22:08:36.596Z,14.00
2023-02-11T22:10:49.419Z,12.60
2023-02-11T22:13:01.947Z,12.90
2023-02-11T22:15:17.785Z,12.10
2023-02-11T22:17:30.382Z,13.10
2023-02-11T22:19:43.063Z,12.40
2023-02-11T22:21:55.818Z,13.10
2023-02-11T22:24:08.823Z,13.60
2023-02-11T22:26:23.661Z,12.90
2023-02-11T22:28:38.929Z,15.20
2023-02-11T22:30:58.687Z,15.60
2023-02-11T22:33:11.406Z,14.10
2023-02-11T22:35:23.972Z,19.00
2023-02-11T22:37:36.539Z,14.00
2023-02-11T22:39:49.064Z,13.00
2023-02-11T22:42:01.659Z,14.20
2023-02-11T22:44:17.112Z,11.00
2023-02-11T22:46:30.032Z,11.80
2023-02-11T22:48:42.904Z,12.40
2023-02-11T22:50:55.825Z,14.10
2023-02-11T22:53:08.531Z,12.20
2023-02-11T22:55:21.001Z,12.00
2023-02-11T22:57:33.764Z,12.30
2023-02-11T22:59:48.000Z,12.20
2023-02-11T23:02:00.724Z,11.30
2023-02-11T23:04:15.583Z,11.50
2023-02-11T23:06:30.640Z,12.40
2023-02-11T23:08:43.896Z,11.70
2023-02-11T23:10:56.828Z,12.10
2023-02-11T23:13:10.476Z,13.60
2023-02-11T23:15:23.000Z,12.60
2023-02-11T23:17:35.551Z,11.90
2023-02-11T23:19:48.211Z,13.10
2023-02-11T23:22:00.748Z,13.00
2023-02-11T23:24:14.385Z,13.20
2023-02-11T23:26:27.751Z,13.10
2023-02-11T23:28:40.427Z,12.50
2023-02-11T23:30:53.070Z,12.90
2023-02-11T23:33:05.675Z,11.40
2023-02-11T23:35:27.580Z,11.40
2023-02-11T23:37:40.085Z,10.90
2023-02-11T23:39:52.683Z,11.40
2023-02-11T23:42:05.471Z,12.90
2023-02-11T23:44:18.010Z,12.60
2023-02-11T23:46:30.588Z,11.70
2023-02-11T23:48:43.467Z,10.60
2023-02-11T23:50:56.123Z,10.80
2023-02-11T23:53:08.644Z,11.20
2023-02-11T23:55:21.142Z,11.40
2023-02-11T23:57:34.259Z,11.50
2023-02-11T23:59:49.663Z,10.40
